Time;durP1;ratioP1;P1;durP2;ratioP2;P2;SDS_P1;SDS_P2;PMS_P1;PMS_P2;Temp;Humidity;BMP_temperature;BMP_pressure;BME280_temperature;BME280_humidity;BME280_pressure;Samples;Min_cycle;Max_cycle;Signal;HPM_P1;HPM_P2
2021/05/24 00:00:58;;;;;;;2.60;2.22;;;18.30;77.00;;;;;;5047148;28;20192;-72
2021/05/24 00:03:24;;;;;;;2.00;1.90;;;18.20;77.20;;;;;;5050380;28;20261;-74
2021/05/24 00:05:50;;;;;;;2.55;1.92;;;18.20;78.30;;;;;;5053871;28;20652;-72
2021/05/24 00:08:16;;;;;;;2.10;2.00;;;18.10;77.50;;;;;;5051029;28;20183;-72
2021/05/24 00:10:44;;;;;;;1.83;1.83;;;18.00;77.60;;;;;;5051495;28;20180;-72
2021/05/24 00:13:12;;;;;;;1.77;1.60;;;17.90;77.60;;;;;;5055127;28;20241;-73
2021/05/24 00:15:42;;;;;;;1.73;1.60;;;17.90;77.50;;;;;;5050749;28;20947;-73
2021/05/24 00:18:08;;;;;;;1.45;1.40;;;17.80;77.70;;;;;;5049955;28;20215;-72
2021/05/24 00:20:36;;;;;;;1.30;1.30;;;17.80;77.60;;;;;;5049051;28;20249;-73
2021/05/24 00:23:03;;;;;;;1.40;1.30;;;17.80;77.60;;;;;;5049817;28;20183;-73
2021/05/24 00:25:29;;;;;;;1.85;1.20;;;17.80;77.70;;;;;;5049976;28;20249;-72
2021/05/24 00:27:57;;;;;;;1.38;1.38;;;17.70;77.60;;;;;;5053588;28;20674;-72
2021/05/24 00:30:23;;;;;;;1.58;1.48;;;17.70;77.50;;;;;;5048647;28;20218;-72
2021/05/24 00:32:49;;;;;;;1.50;1.40;;;17.70;78.00;;;;;;5048538;28;20695;-73
2021/05/24 00:35:15;;;;;;;1.50;1.40;;;17.70;78.00;;;;;;5045088;28;20193;-73
2021/05/24 00:37:41;;;;;;;6.95;2.00;;;17.70;78.10;;;;;;5052257;28;20696;-73
2021/05/24 00:40:09;;;;;;;3.00;1.60;;;17.70;78.60;;;;;;5045966;28;20369;-73
2021/05/24 00:42:35;;;;;;;4.03;1.88;;;17.70;79.40;;;;;;5057163;28;20267;-72
2021/05/24 00:45:03;;;;;;;1.80;1.70;;;17.60;79.20;;;;;;5049477;28;20198;-72
2021/05/24 00:47:30;;;;;;;2.10;1.92;;;17.50;79.00;;;;;;5041300;28;20187;-72
2021/05/24 00:49:56;;;;;;;1.63;1.52;;;17.50;78.70;;;;;;5049196;28;20179;-73
2021/05/24 00:52:22;;;;;;;6.47;1.95;;;17.50;78.90;;;;;;5046504;28;20577;-73
2021/05/24 00:54:47;;;;;;;3.17;2.20;;;17.40;80.10;;;;;;5048322;28;20599;-74
2021/05/24 00:57:14;;;;;;;2.42;2.22;;;17.40;80.00;;;;;;5048267;28;20187;-73
2021/05/24 00:59:39;;;;;;;2.35;2.10;;;17.30;80.00;;;;;;5049414;28;20219;-73
2021/05/24 01:02:05;;;;;;;1.98;1.92;;;17.30;79.60;;;;;;5050417;28;20245;-74
2021/05/24 01:04:34;;;;;;;2.08;1.98;;;17.30;80.40;;;;;;5050878;28;20187;-74
2021/05/24 01:07:00;;;;;;;1.75;1.50;;;17.30;80.20;;;;;;5049564;28;20580;-73
2021/05/24 01:09:26;;;;;;;1.92;1.83;;;17.30;80.10;;;;;;5049024;28;20192;-73
2021/05/24 01:11:52;;;;;;;1.35;1.30;;;17.30;80.40;;;;;;5048668;28;20230;-73
2021/05/24 01:14:18;;;;;;;1.40;1.30;;;17.30;79.50;;;;;;5047515;28;20196;-73
2021/05/24 01:16:48;;;;;;;3.42;1.42;;;17.30;79.20;;;;;;5046725;28;20198;-73
2021/05/24 01:19:14;;;;;;;1.42;1.33;;;17.30;78.60;;;;;;5048026;28;20222;-73
2021/05/24 01:21:40;;;;;;;1.23;1.20;;;17.30;78.60;;;;;;5048055;28;20421;-72
2021/05/24 01:24:07;;;;;;;1.40;0.90;;;17.30;79.20;;;;;;5048584;28;20677;-73
2021/05/24 01:26:32;;;;;;;3.63;1.02;;;17.20;78.00;;;;;;5050657;28;20275;-73
2021/05/24 01:28:58;;;;;;;1.95;1.42;;;17.30;78.20;;;;;;5041152;28;20267;-72
2021/05/24 01:31:24;;;;;;;2.20;1.48;;;17.40;77.80;;;;;;5046822;28;20219;-73
2021/05/24 01:33:49;;;;;;;1.20;1.13;;;17.40;77.50;;;;;;5048935;28;20183;-72
2021/05/24 01:36:15;;;;;;;1.95;1.60;;;17.40;77.60;;;;;;5047594;28;20263;-73
2021/05/24 01:38:44;;;;;;;1.90;1.73;;;17.40;78.60;;;;;;5048775;28;20269;-74
2021/05/24 01:41:12;;;;;;;1.40;1.40;;;17.40;78.30;;;;;;5047505;28;20194;-73
2021/05/24 01:43:38;;;;;;;1.95;1.40;;;17.40;78.30;;;;;;5049189;28;20577;-73
2021/05/24 01:46:05;;;;;;;1.58;1.50;;;17.40;78.60;;;;;;5047910;28;20226;-73
2021/05/24 01:48:31;;;;;;;2.55;1.40;;;17.30;78.50;;;;;;5049788;28;20187;-74
2021/05/24 01:50:58;;;;;;;1.77;1.50;;;17.30;78.70;;;;;;5047802;28;20179;-74
2021/05/24 01:53:24;;;;;;;2.17;1.40;;;17.20;78.90;;;;;;5047900;28;20184;-73
2021/05/24 01:55:50;;;;;;;1.40;1.40;;;17.20;79.00;;;;;;5048032;28;20184;-72
2021/05/24 01:58:16;;;;;;;1.65;1.55;;;17.20;79.20;;;;;;5053322;28;21006;-72
2021/05/24 02:00:42;;;;;;;1.70;1.15;;;17.10;79.10;;;;;;5052620;28;20184;-74
2021/05/24 02:03:08;;;;;;;1.35;1.05;;;17.10;78.80;;;;;;5053081;28;20211;-72
2021/05/24 02:05:36;;;;;;;6.72;1.10;;;17.10;78.70;;;;;;5047640;28;20180;-73
2021/05/24 02:08:03;;;;;;;0.90;0.90;;;17.10;77.90;;;;;;5050783;28;20278;-73
2021/05/24 02:10:31;;;;;;;8.07;0.95;;;17.10;78.00;;;;;;5050834;28;20206;-72
2021/05/24 02:12:58;;;;;;;1.38;0.60;;;17.20;77.80;;;;;;5056149;28;20196;-73
2021/05/24 02:15:28;;;;;;;0.73;0.70;;;17.20;76.80;;;;;;5046836;28;20257;-72
2021/05/24 02:17:54;;;;;;;5.35;0.77;;;17.30;76.90;;;;;;5047794;28;20213;-73
2021/05/24 02:20:25;;;;;;;1.35;0.90;;;17.40;76.70;;;;;;5047508;28;20187;-73
2021/05/24 02:23:02;;;;;;;4.22;1.00;;;17.50;76.40;;;;;;5029047;28;20196;-73
2021/05/24 02:25:27;;;;;;;2.05;0.80;;;17.50;76.20;;;;;;5053894;28;20237;-73
2021/05/24 02:27:55;;;;;;;3.75;1.13;;;17.60;76.10;;;;;;5052543;28;20187;-72
2021/05/24 02:30:22;;;;;;;2.55;0.98;;;17.70;75.90;;;;;;5045346;28;20214;-73
2021/05/24 02:32:48;;;;;;;4.22;0.75;;;17.70;75.40;;;;;;5044003;28;20191;-73
2021/05/24 02:35:17;;;;;;;2.95;1.00;;;17.70;76.00;;;;;;5047020;28;20195;-73
2021/05/24 02:37:44;;;;;;;1.88;0.63;;;17.70;76.00;;;;;;5048436;28;20296;-73
2021/05/24 02:40:12;;;;;;;0.70;0.70;;;17.70;76.20;;;;;;5048629;28;20238;-73
2021/05/24 02:42:38;;;;;;;0.82;0.75;;;17.70;76.60;;;;;;5040014;28;20183;-73
2021/05/24 02:45:05;;;;;;;0.70;0.70;;;17.70;77.00;;;;;;5048916;28;20548;-73
2021/05/24 02:47:31;;;;;;;1.92;1.15;;;17.60;77.00;;;;;;5049412;28;20198;-73
2021/05/24 02:49:57;;;;;;;5.40;0.70;;;17.60;76.40;;;;;;5047908;28;20179;-73
2021/05/24 02:52:23;;;;;;;2.08;0.65;;;17.60;77.40;;;;;;5043183;28;20214;-72
2021/05/24 02:54:49;;;;;;;2.17;0.75;;;17.60;77.40;;;;;;5044998;28;20183;-73
2021/05/24 02:57:15;;;;;;;1.60;0.90;;;17.50;78.10;;;;;;5047110;28;20550;-74
2021/05/24 02:59:42;;;;;;;0.70;0.70;;;17.50;77.00;;;;;;5050581;28;20272;-73
2021/05/24 03:02:12;;;;;;;2.00;0.73;;;17.50;78.00;;;;;;5046975;28;20195;-73
2021/05/24 03:04:38;;;;;;;1.77;0.68;;;17.40;78.70;;;;;;5046237;28;20270;-73
2021/05/24 03:07:05;;;;;;;1.75;0.73;;;17.40;78.80;;;;;;5039733;28;20725;-73
2021/05/24 03:09:31;;;;;;;0.80;0.80;;;17.30;79.30;;;;;;5045455;28;20253;-73
2021/05/24 03:11:57;;;;;;;0.90;0.70;;;17.30;79.50;;;;;;5052062;28;20183;-72
2021/05/24 03:14:23;;;;;;;2.22;0.77;;;17.30;78.80;;;;;;5047816;28;20195;-72
2021/05/24 03:16:49;;;;;;;2.85;0.85;;;17.20;80.30;;;;;;5042524;28;20253;-73
2021/05/24 03:19:15;;;;;;;0.60;0.60;;;17.20;80.20;;;;;;5047337;28;20254;-73
2021/05/24 03:21:43;;;;;;;4.03;0.60;;;17.10;80.50;;;;;;5051105;28;20184;-73
2021/05/24 03:24:09;;;;;;;3.05;0.80;;;17.10;79.90;;;;;;5051543;28;20203;-73
2021/05/24 03:26:35;;;;;;;5.30;0.75;;;17.10;80.80;;;;;;5053283;28;20184;-73
2021/05/24 03:29:02;;;;;;;0.65;0.65;;;17.10;80.50;;;;;;5046863;28;20200;-73
2021/05/24 03:31:27;;;;;;;2.17;0.70;;;17.10;80.90;;;;;;5050655;28;20180;-72
2021/05/24 03:33:53;;;;;;;0.68;0.68;;;17.10;80.30;;;;;;5050728;28;20544;-73
2021/05/24 03:36:19;;;;;;;2.55;0.80;;;17.10;81.10;;;;;;5052741;28;20641;-73
2021/05/24 03:38:45;;;;;;;4.00;0.70;;;17.10;80.70;;;;;;5049880;28;20359;-73
2021/05/24 03:41:11;;;;;;;2.10;0.60;;;17.10;81.30;;;;;;5039594;28;20270;-72
2021/05/24 03:43:37;;;;;;;0.52;0.50;;;17.00;81.30;;;;;;5042677;28;20211;-72
2021/05/24 03:46:03;;;;;;;0.70;0.70;;;17.00;81.20;;;;;;5049317;28;20179;-74
2021/05/24 03:48:29;;;;;;;1.20;0.82;;;17.00;80.30;;;;;;5047793;28;20986;-74
2021/05/24 03:50:55;;;;;;;0.60;0.60;;;17.00;81.00;;;;;;5049897;28;20183;-73
2021/05/24 03:53:21;;;;;;;1.77;1.05;;;17.00;80.70;;;;;;5048836;28;20195;-73
2021/05/24 03:55:46;;;;;;;0.60;0.60;;;17.00;81.10;;;;;;5061790;28;20267;-74
2021/05/24 03:58:12;;;;;;;4.75;0.75;;;17.00;81.10;;;;;;5051003;28;20211;-73
2021/05/24 04:00:38;;;;;;;1.63;0.70;;;17.00;80.80;;;;;;5051313;28;20515;-72
2021/05/24 04:03:04;;;;;;;0.70;0.70;;;17.00;80.90;;;;;;5051112;28;20273;-73
2021/05/24 04:05:32;;;;;;;0.60;0.60;;;17.10;81.20;;;;;;5048043;28;20754;-73
2021/05/24 04:07:59;;;;;;;0.95;0.50;;;17.10;80.50;;;;;;5049701;28;20182;-72
2021/05/24 04:10:32;;;;;;;0.82;0.82;;;17.20;80.20;;;;;;5049950;28;20270;-73
2021/05/24 04:12:58;;;;;;;1.08;0.90;;;17.30;79.80;;;;;;5051672;28;20184;-72
2021/05/24 04:15:24;;;;;;;0.70;0.70;;;17.40;80.00;;;;;;5058484;28;20199;-73
2021/05/24 04:17:51;;;;;;;0.60;0.60;;;17.40;79.90;;;;;;5048791;28;20553;-73
2021/05/24 04:20:17;;;;;;;0.80;0.80;;;17.40;80.30;;;;;;5047410;28;20179;-72
2021/05/24 04:22:44;;;;;;;1.45;0.50;;;17.40;80.20;;;;;;5051590;28;20583;-73
2021/05/24 04:25:10;;;;;;;0.50;0.50;;;17.40;80.30;;;;;;5043456;28;20179;-73
2021/05/24 04:27:37;;;;;;;4.60;0.57;;;17.40;80.70;;;;;;5056436;28;20223;-74
2021/05/24 04:30:08;;;;;;;0.65;0.50;;;17.30;80.80;;;;;;5053062;28;20258;-74
2021/05/24 04:32:34;;;;;;;0.60;0.60;;;17.20;81.50;;;;;;5049655;28;20191;-73
2021/05/24 04:35:00;;;;;;;0.57;0.57;;;17.20;81.70;;;;;;5049058;28;20198;-73
2021/05/24 04:37:25;;;;;;;1.80;0.63;;;17.20;81.20;;;;;;5048577;28;20183;-73
2021/05/24 04:39:51;;;;;;;1.17;0.70;;;17.20;81.40;;;;;;5050118;28;20210;-73
2021/05/24 04:42:19;;;;;;;1.50;0.63;;;17.10;81.70;;;;;;5057575;28;20188;-72
2021/05/24 04:44:45;;;;;;;0.90;0.73;;;17.10;82.10;;;;;;5049924;28;20270;-74
2021/05/24 04:47:11;;;;;;;0.63;0.63;;;17.10;81.70;;;;;;5054644;28;20333;-72
2021/05/24 04:49:36;;;;;;;0.65;0.65;;;17.10;81.80;;;;;;5049219;28;20780;-73
2021/05/24 04:52:02;;;;;;;0.80;0.60;;;17.10;82.50;;;;;;5051937;28;20210;-73
2021/05/24 04:54:28;;;;;;;1.05;0.40;;;17.10;82.50;;;;;;5050782;28;20184;-72
2021/05/24 04:56:54;;;;;;;0.82;0.45;;;17.10;82.00;;;;;;5052488;28;20775;-72
2021/05/24 04:59:20;;;;;;;0.40;0.40;;;17.10;81.40;;;;;;5054126;28;20213;-73
2021/05/24 05:01:49;;;;;;;0.60;0.60;;;17.10;82.40;;;;;;5045548;28;20579;-73
2021/05/24 05:04:16;;;;;;;0.50;0.50;;;17.10;82.10;;;;;;5048700;28;20180;-72
2021/05/24 05:06:42;;;;;;;0.77;0.70;;;17.10;82.00;;;;;;5053152;28;20184;-72
2021/05/24 05:09:07;;;;;;;3.05;0.50;;;17.10;82.20;;;;;;5046151;28;20191;-73
2021/05/24 05:11:33;;;;;;;1.70;0.85;;;17.10;82.10;;;;;;5048957;28;20183;-74
2021/05/24 05:13:59;;;;;;;0.50;0.50;;;17.20;81.90;;;;;;5047529;28;20206;-73
2021/05/24 05:16:24;;;;;;;0.40;0.40;;;17.20;82.50;;;;;;5050591;28;20188;-73
2021/05/24 05:18:50;;;;;;;2.50;0.50;;;17.20;82.60;;;;;;5054003;28;20205;-74
2021/05/24 05:21:16;;;;;;;1.00;0.40;;;17.20;82.40;;;;;;5050615;28;20180;-71
2021/05/24 05:23:42;;;;;;;0.40;0.40;;;17.20;82.30;;;;;;5046520;28;20186;-72
2021/05/24 05:26:07;;;;;;;0.50;0.50;;;17.20;82.20;;;;;;5047638;28;20515;-71
2021/05/24 05:28:33;;;;;;;1.70;0.50;;;17.30;82.60;;;;;;5049812;28;20192;-73
2021/05/24 05:30:59;;;;;;;0.50;0.50;;;17.30;82.70;;;;;;5047129;28;20646;-72
2021/05/24 05:33:25;;;;;;;2.95;0.50;;;17.40;82.40;;;;;;5047885;28;20175;-73
2021/05/24 05:35:54;;;;;;;2.58;0.50;;;17.40;82.40;;;;;;5046215;28;20313;-73
2021/05/24 05:38:20;;;;;;;0.40;0.40;;;17.40;82.40;;;;;;5048054;28;20300;-73
2021/05/24 05:40:48;;;;;;;0.77;0.40;;;17.40;82.10;;;;;;5047066;28;20227;-73
2021/05/24 05:43:14;;;;;;;1.45;0.40;;;17.40;82.70;;;;;;5044986;28;20184;-74
2021/05/24 05:45:40;;;;;;;1.38;0.50;;;17.50;82.50;;;;;;5048959;28;20240;-74
2021/05/24 05:48:06;;;;;;;1.67;0.40;;;17.50;82.50;;;;;;5045942;28;20187;-74
2021/05/24 05:50:32;;;;;;;1.40;0.50;;;17.50;82.60;;;;;;5048226;28;20862;-74
2021/05/24 05:52:58;;;;;;;0.65;0.65;;;17.50;82.80;;;;;;5046865;28;20190;-74
2021/05/24 05:55:24;;;;;;;0.60;0.60;;;17.50;82.70;;;;;;5047107;28;20576;-74
2021/05/24 05:57:50;;;;;;;0.80;0.40;;;17.60;82.90;;;;;;5049673;28;20806;-74
2021/05/24 06:00:17;;;;;;;2.30;0.60;;;17.60;82.90;;;;;;5039692;28;20688;-73
2021/05/24 06:02:43;;;;;;;0.60;0.60;;;17.70;83.00;;;;;;5049410;28;20752;-74
2021/05/24 06:05:10;;;;;;;1.00;0.50;;;17.70;82.20;;;;;;5047753;28;20180;-73
2021/05/24 06:07:36;;;;;;;1.33;0.40;;;17.80;82.80;;;;;;5056988;28;20187;-73
2021/05/24 06:10:01;;;;;;;0.50;0.50;;;17.90;82.20;;;;;;5052248;28;20589;-73
2021/05/24 06:12:27;;;;;;;0.40;0.40;;;18.00;81.60;;;;;;5042168;28;20179;-73
2021/05/24 06:14:53;;;;;;;1.25;0.50;;;18.10;81.10;;;;;;5044059;28;20218;-71
2021/05/24 06:17:18;;;;;;;4.10;0.50;;;18.20;80.60;;;;;;5046069;28;20183;-72
2021/05/24 06:19:44;;;;;;;3.30;0.50;;;18.30;80.30;;;;;;5047594;28;20862;-74
2021/05/24 06:22:12;;;;;;;0.60;0.60;;;18.40;80.40;;;;;;5045274;28;20211;-75
2021/05/24 06:24:38;;;;;;;1.02;0.50;;;18.50;79.60;;;;;;5048039;28;20179;-72
2021/05/24 06:27:04;;;;;;;0.47;0.40;;;18.60;79.00;;;;;;5048645;28;20183;-74
2021/05/24 06:29:31;;;;;;;4.30;0.70;;;18.60;79.40;;;;;;5050998;28;20191;-73
2021/05/24 06:31:57;;;;;;;2.17;0.50;;;18.70;79.00;;;;;;5038790;28;20223;-73
2021/05/24 06:34:23;;;;;;;0.60;0.60;;;18.80;79.40;;;;;;5050358;28;20289;-73
2021/05/24 06:36:49;;;;;;;0.50;0.50;;;18.80;79.30;;;;;;5044467;28;20175;-72
2021/05/24 06:39:16;;;;;;;0.70;0.70;;;18.80;78.40;;;;;;5046989;28;20256;-72
2021/05/24 06:41:41;;;;;;;1.77;0.50;;;18.80;78.20;;;;;;5043993;28;20186;-73
2021/05/24 06:44:07;;;;;;;2.55;0.40;;;18.80;78.90;;;;;;5050188;28;20184;-74
2021/05/24 06:46:33;;;;;;;0.43;0.43;;;18.80;78.20;;;;;;5042597;28;20176;-73
2021/05/24 06:48:59;;;;;;;0.63;0.50;;;18.80;78.10;;;;;;5049825;28;20581;-74
2021/05/24 06:51:25;;;;;;;0.60;0.60;;;18.90;78.10;;;;;;5043770;28;20203;-73
2021/05/24 06:53:52;;;;;;;1.17;0.52;;;19.00;77.90;;;;;;5042155;28;20226;-72
2021/05/24 06:56:18;;;;;;;0.57;0.50;;;19.00;78.10;;;;;;5049432;28;20552;-73
2021/05/24 06:58:44;;;;;;;0.60;0.60;;;19.00;77.60;;;;;;5037429;28;20203;-73
2021/05/24 07:01:10;;;;;;;2.20;0.60;;;19.10;77.20;;;;;;5049340;28;20206;-72
2021/05/24 07:03:35;;;;;;;2.72;0.50;;;19.10;77.20;;;;;;5048575;28;20190;-72
2021/05/24 07:06:01;;;;;;;0.50;0.50;;;19.20;77.10;;;;;;5043028;28;20930;-74
2021/05/24 07:08:27;;;;;;;2.15;0.60;;;19.30;77.00;;;;;;5045128;28;20186;-73
2021/05/24 07:10:53;;;;;;;0.95;0.63;;;19.40;77.10;;;;;;5042214;28;21917;-72
2021/05/24 07:13:19;;;;;;;2.38;0.52;;;19.40;77.40;;;;;;5053904;28;20180;-73
2021/05/24 07:15:44;;;;;;;0.57;0.57;;;19.50;77.10;;;;;;5046179;28;20691;-73
2021/05/24 07:18:10;;;;;;;0.70;0.70;;;19.60;77.10;;;;;;5044370;28;20242;-73
2021/05/24 07:20:36;;;;;;;0.65;0.40;;;19.70;76.60;;;;;;5042891;28;20202;-72
2021/05/24 07:23:02;;;;;;;2.53;0.60;;;19.80;76.60;;;;;;5046901;28;20184;-73
2021/05/24 07:25:28;;;;;;;0.95;0.50;;;19.80;77.00;;;;;;5045294;28;20253;-73
2021/05/24 07:27:54;;;;;;;0.43;0.43;;;19.80;75.40;;;;;;5044371;28;20847;-73
2021/05/24 07:30:20;;;;;;;0.43;0.43;;;19.90;75.30;;;;;;5045838;28;20184;-72
2021/05/24 07:32:46;;;;;;;2.20;0.60;;;19.90;75.10;;;;;;5045990;28;20184;-73
2021/05/24 07:35:12;;;;;;;1.50;0.50;;;19.90;74.70;;;;;;5047024;28;20209;-76
2021/05/24 07:37:38;;;;;;;0.73;0.50;;;20.00;75.00;;;;;;5044546;28;20188;-74
2021/05/24 07:40:06;;;;;;;3.55;0.68;;;20.00;75.10;;;;;;5045510;28;20199;-74
2021/05/24 07:42:32;;;;;;;0.73;0.73;;;20.10;75.30;;;;;;5046231;28;20183;-75
2021/05/24 07:44:57;;;;;;;4.35;0.75;;;20.20;74.40;;;;;;5045131;28;20698;-74
2021/05/24 07:47:23;;;;;;;0.50;0.50;;;20.30;74.40;;;;;;5044096;28;20187;-73
2021/05/24 07:49:49;;;;;;;0.68;0.68;;;20.30;74.60;;;;;;5042628;28;20179;-74
2021/05/24 07:52:14;;;;;;;3.83;0.77;;;20.40;73.70;;;;;;5044620;28;20267;-77
2021/05/24 07:54:40;;;;;;;0.68;0.68;;;20.40;73.60;;;;;;5046364;28;20195;-75
2021/05/24 07:57:06;;;;;;;1.63;0.95;;;20.50;73.10;;;;;;5052379;28;20573;-76
2021/05/24 07:59:32;;;;;;;2.63;0.60;;;20.60;72.70;;;;;;5040572;28;20322;-77
2021/05/24 08:02:00;;;;;;;1.98;0.70;;;20.60;72.10;;;;;;5039266;28;20179;-75
2021/05/24 08:04:26;;;;;;;1.50;0.55;;;20.60;72.30;;;;;;5030247;28;20180;-75
2021/05/24 08:06:52;;;;;;;0.98;0.85;;;20.70;72.80;;;;;;5049215;28;20250;-75
2021/05/24 08:09:17;;;;;;;0.63;0.63;;;20.70;72.90;;;;;;5048714;28;20176;-72
2021/05/24 08:11:43;;;;;;;0.55;0.55;;;20.80;72.60;;;;;;5052341;28;20187;-76
2021/05/24 08:14:14;;;;;;;4.22;0.80;;;20.90;72.10;;;;;;5046183;28;20184;-76
2021/05/24 08:16:41;;;;;;;1.08;0.55;;;21.00;72.80;;;;;;5047474;28;20178;-74
2021/05/24 08:19:06;;;;;;;0.60;0.60;;;21.00;72.50;;;;;;5047318;28;20214;-77
2021/05/24 08:21:32;;;;;;;1.95;0.77;;;21.10;72.40;;;;;;5047827;28;20184;-76
2021/05/24 08:23:58;;;;;;;2.72;0.73;;;21.20;72.20;;;;;;5049188;28;20267;-76
2021/05/24 08:26:23;;;;;;;3.08;0.98;;;21.30;71.50;;;;;;5048300;28;20186;-76
2021/05/24 08:28:49;;;;;;;0.95;0.80;;;21.40;71.40;;;;;;5048806;28;20586;-76
2021/05/24 08:31:15;;;;;;;0.80;0.80;;;21.50;71.00;;;;;;5050515;28;20184;-77
2021/05/24 08:33:41;;;;;;;0.65;0.65;;;21.60;71.30;;;;;;5051657;28;20210;-77
2021/05/24 08:36:07;;;;;;;1.30;0.57;;;21.70;72.10;;;;;;5057615;28;20903;-77
2021/05/24 08:38:33;;;;;;;1.20;0.73;;;21.80;71.40;;;;;;5052956;28;20574;-77
2021/05/24 08:41:06;;;;;;;1.02;0.90;;;21.80;70.30;;;;;;5045616;28;20814;-75
2021/05/24 08:43:32;;;;;;;0.73;0.73;;;21.90;70.00;;;;;;5048152;28;20742;-75
2021/05/24 08:45:59;;;;;;;0.90;0.90;;;22.00;70.90;;;;;;5047119;28;20180;-77
2021/05/24 08:48:25;;;;;;;2.75;0.88;;;22.10;68.80;;;;;;5048279;28;20828;-76
2021/05/24 08:50:50;;;;;;;3.85;0.70;;;22.20;69.00;;;;;;5048887;28;20191;-75
2021/05/24 08:53:16;;;;;;;1.63;0.93;;;22.30;70.70;;;;;;5047234;28;20198;-77
2021/05/24 08:55:41;;;;;;;0.80;0.80;;;22.40;70.90;;;;;;5045675;28;20218;-74
2021/05/24 08:58:08;;;;;;;0.77;0.77;;;22.50;68.50;;;;;;5047889;28;20207;-73
2021/05/24 09:00:35;;;;;;;0.95;0.70;;;22.60;68.30;;;;;;5048600;28;20180;-73
2021/05/24 09:03:01;;;;;;;1.10;0.98;;;22.70;67.50;;;;;;5047298;28;20179;-72
2021/05/24 09:05:30;;;;;;;0.80;0.80;;;22.80;67.30;;;;;;5046921;28;20187;-72
2021/05/24 09:08:03;;;;;;;4.38;1.00;;;22.90;67.90;;;;;;5047713;28;20179;-72
2021/05/24 09:10:30;;;;;;;0.70;0.70;;;22.90;67.40;;;;;;5057381;28;20237;-73
2021/05/24 09:12:56;;;;;;;0.77;0.77;;;23.00;66.90;;;;;;5052464;28;20612;-74
2021/05/24 09:15:24;;;;;;;0.70;0.70;;;23.20;67.70;;;;;;5049841;28;20268;-73
2021/05/24 09:17:53;;;;;;;1.90;0.93;;;23.40;68.80;;;;;;5056167;28;20176;-73
2021/05/24 09:20:32;;;;;;;2.83;1.00;;;23.60;68.00;;;;;;5056786;28;20180;-74
2021/05/24 09:23:14;;;;;;;0.63;0.63;;;23.90;67.90;;;;;;5047650;28;20179;-74
2021/05/24 09:25:58;;;;;;;1.48;0.73;;;24.20;64.70;;;;;;5046818;28;20643;-73
2021/05/24 09:28:38;;;;;;;1.60;0.90;;;24.40;64.50;;;;;;5050696;28;20186;-72
2021/05/24 09:31:10;;;;;;;0.70;0.70;;;24.60;62.90;;;;;;5046510;28;20186;-73
2021/05/24 09:33:41;;;;;;;1.98;0.80;;;24.90;63.30;;;;;;5048172;28;20246;-73
2021/05/24 09:36:07;;;;;;;1.30;0.80;;;25.00;61.70;;;;;;5050411;28;20191;-73
2021/05/24 09:38:41;;;;;;;2.22;1.00;;;25.10;61.90;;;;;;5052028;28;20219;-72
2021/05/24 09:41:10;;;;;;;4.95;0.70;;;25.20;63.00;;;;;;5051500;28;20230;-72
2021/05/24 09:43:45;;;;;;;1.05;0.68;;;25.40;61.50;;;;;;5041351;28;20211;-74
2021/05/24 09:46:14;;;;;;;0.82;0.82;;;25.50;59.90;;;;;;5049704;28;20551;-73
2021/05/24 09:48:42;;;;;;;0.77;0.77;;;25.60;61.10;;;;;;5046554;28;20241;-73
2021/05/24 09:51:14;;;;;;;0.80;0.80;;;25.80;62.90;;;;;;5043095;28;20225;-71
2021/05/24 09:53:41;;;;;;;1.17;0.70;;;26.10;62.80;;;;;;5045041;28;20171;-73
2021/05/24 09:56:10;;;;;;;1.25;0.98;;;26.30;60.90;;;;;;5046377;28;20367;-73
2021/05/24 09:58:37;;;;;;;2.58;0.90;;;26.60;62.20;;;;;;5047029;28;20273;-72
2021/05/24 10:01:19;;;;;;;0.77;0.77;;;26.80;61.20;;;;;;5046894;28;20188;-73
2021/05/24 10:03:48;;;;;;;1.02;0.90;;;27.10;60.70;;;;;;5045364;28;20176;-73
2021/05/24 10:06:14;;;;;;;4.13;1.00;;;27.30;59.40;;;;;;5052188;28;20175;-73
2021/05/24 10:08:42;;;;;;;5.45;1.00;;;27.60;58.30;;;;;;5046227;28;20241;-72
2021/05/24 10:11:08;;;;;;;2.58;0.80;;;28.00;58.30;;;;;;5046795;28;20592;-73
2021/05/24 10:13:33;;;;;;;1.25;1.05;;;28.40;58.00;;;;;;5041541;28;20188;-74
2021/05/24 10:16:01;;;;;;;0.90;0.90;;;29.00;57.60;;;;;;5046699;28;20669;-74
2021/05/24 10:18:29;;;;;;;4.55;0.90;;;29.50;57.00;;;;;;5044737;28;20292;-74
2021/05/24 10:20:58;;;;;;;0.95;0.95;;;30.00;56.40;;;;;;5046710;28;20617;-73
2021/05/24 10:23:25;;;;;;;1.95;1.02;;;30.30;56.40;;;;;;5046193;28;20206;-73
2021/05/24 10:25:52;;;;;;;1.25;0.80;;;30.40;55.70;;;;;;5044524;28;20188;-73
2021/05/24 10:28:21;;;;;;;4.13;1.13;;;30.50;55.60;;;;;;5049586;28;20207;-72
2021/05/24 10:30:47;;;;;;;3.50;0.98;;;30.50;55.30;;;;;;5049654;28;20377;-72
2021/05/24 10:33:13;;;;;;;2.30;0.98;;;30.60;54.20;;;;;;5045927;28;20274;-73
2021/05/24 10:35:43;;;;;;;0.95;0.82;;;30.80;54.00;;;;;;5044834;28;20183;-73
2021/05/24 10:38:32;;;;;;;0.73;0.73;;;31.30;54.60;;;;;;5046881;28;20235;-73
2021/05/24 10:41:13;;;;;;;0.90;0.90;;;32.10;53.00;;;;;;5048998;28;20637;-76
2021/05/24 10:43:53;;;;;;;1.67;0.98;;;32.80;49.80;;;;;;5065111;28;20281;-74
2021/05/24 10:46:30;;;;;;;1.58;1.00;;;32.90;49.10;;;;;;5047089;28;20187;-74
2021/05/24 10:49:05;;;;;;;4.50;1.25;;;33.10;50.10;;;;;;5043070;28;20190;-73
2021/05/24 10:51:52;;;;;;;2.35;1.00;;;33.40;48.80;;;;;;5045849;28;20660;-75
2021/05/24 10:54:20;;;;;;;1.35;1.05;;;33.80;48.40;;;;;;5046147;28;20186;-73
2021/05/24 10:57:07;;;;;;;2.28;1.42;;;34.20;48.20;;;;;;5047508;28;20280;-75
2021/05/24 10:59:43;;;;;;;2.05;0.93;;;34.80;47.70;;;;;;5040768;28;20213;-73
2021/05/24 11:02:29;;;;;;;3.00;1.20;;;35.40;47.80;;;;;;5046461;28;20194;-72
2021/05/24 11:04:59;;;;;;;3.40;1.10;;;35.80;46.00;;;;;;5043173;28;20218;-72
2021/05/24 11:07:32;;;;;;;6.20;1.20;;;36.20;45.90;;;;;;5045110;28;20208;-72
2021/05/24 11:10:13;;;;;;;2.67;1.33;;;36.50;47.90;;;;;;5045818;28;20183;-74
2021/05/24 11:12:39;;;;;;;2.60;0.95;;;36.10;44.80;;;;;;5045489;28;20186;-75
2021/05/24 11:15:14;;;;;;;1.95;1.05;;;35.50;47.30;;;;;;5046389;28;20883;-74
2021/05/24 11:17:58;;;;;;;2.33;1.10;;;34.60;43.80;;;;;;5044906;28;20174;-73
2021/05/24 11:20:33;;;;;;;2.45;1.20;;;33.90;45.60;;;;;;5041769;28;20686;-73
2021/05/24 11:26:11;;;;;;;6.25;1.42;;;33.90;47.10;;;;;;5051130;28;20274;-72
2021/05/24 11:28:39;;;;;;;5.65;0.93;;;34.20;47.20;;;;;;5045292;28;20183;-73
2021/05/24 11:31:35;;;;;;;3.30;1.00;;;34.60;47.40;;;;;;5046155;28;20184;-72
2021/05/24 11:34:02;;;;;;;1.50;0.88;;;35.00;44.60;;;;;;5025629;28;20265;-73
2021/05/24 11:36:39;;;;;;;6.50;1.77;;;35.30;45.40;;;;;;5020705;28;20202;-73
2021/05/24 11:39:15;;;;;;;1.20;0.80;;;35.90;44.60;;;;;;5022667;28;20245;-73
2021/05/24 11:41:55;;;;;;;7.20;1.25;;;36.60;44.90;;;;;;5026015;28;20249;-74
2021/05/24 11:44:24;;;;;;;1.27;0.90;;;37.30;43.80;;;;;;5033871;28;20190;-73
2021/05/24 11:46:57;;;;;;;5.38;1.05;;;37.60;43.60;;;;;;5040266;28;20186;-72
2021/05/24 11:49:36;;;;;;;1.20;1.10;;;37.50;43.70;;;;;;5038993;28;20194;-73
2021/05/24 11:52:04;;;;;;;4.15;1.05;;;37.20;42.60;;;;;;5028117;28;20195;-72
2021/05/24 11:54:30;;;;;;;1.60;1.02;;;36.80;44.00;;;;;;5019853;28;20303;-72
2021/05/24 11:56:58;;;;;;;1.05;0.90;;;36.60;45.20;;;;;;5039398;28;20881;-72
2021/05/24 11:59:26;;;;;;;1.58;0.98;;;36.70;45.30;;;;;;5031693;28;20215;-72
2021/05/24 12:01:53;;;;;;;3.28;1.50;;;36.80;45.80;;;;;;5028624;28;20644;-72
2021/05/24 12:04:28;;;;;;;1.67;1.10;;;36.80;45.60;;;;;;5031832;28;20661;-73
2021/05/24 12:07:08;;;;;;;7.32;1.15;;;36.50;44.80;;;;;;5037359;28;20182;-73
2021/05/24 12:09:47;;;;;;;1.27;1.08;;;36.10;44.70;;;;;;5034755;28;20210;-73
2021/05/24 12:12:16;;;;;;;3.45;0.95;;;35.70;45.60;;;;;;5043457;28;21018;-74
2021/05/24 12:14:45;;;;;;;2.38;1.00;;;35.40;45.70;;;;;;5047681;28;20187;-73
2021/05/24 12:17:12;;;;;;;1.00;1.00;;;35.30;47.20;;;;;;5050113;28;20183;-73
2021/05/24 12:19:38;;;;;;;3.72;1.08;;;35.20;47.70;;;;;;5049860;28;20204;-73
2021/05/24 12:22:06;;;;;;;4.35;1.10;;;35.20;47.60;;;;;;5049644;28;20205;-73
2021/05/24 12:24:37;;;;;;;1.63;1.20;;;35.10;46.40;;;;;;5048552;28;20183;-72
2021/05/24 12:27:04;;;;;;;3.13;1.20;;;35.20;46.90;;;;;;5049916;28;20175;-73
2021/05/24 12:29:32;;;;;;;3.03;1.00;;;35.60;45.90;;;;;;5049948;28;20317;-73
2021/05/24 12:32:01;;;;;;;0.95;0.95;;;36.20;45.40;;;;;;5049593;28;20171;-73
2021/05/24 12:34:43;;;;;;;2.58;0.70;;;36.70;44.20;;;;;;5049894;28;20175;-73
2021/05/24 12:37:11;;;;;;;1.30;1.10;;;36.70;42.20;;;;;;5045402;28;20879;-73
2021/05/24 12:39:41;;;;;;;0.82;0.80;;;36.10;44.00;;;;;;5049716;28;20202;-73
2021/05/24 12:42:09;;;;;;;3.15;1.00;;;35.70;44.40;;;;;;5049784;28;20648;-73
2021/05/24 12:44:37;;;;;;;1.60;0.82;;;35.80;45.70;;;;;;5050040;28;20171;-73
2021/05/24 12:47:15;;;;;;;1.10;1.00;;;36.40;45.20;;;;;;5049659;28;20652;-73
2021/05/24 12:49:42;;;;;;;3.35;1.08;;;36.90;42.90;;;;;;5044594;28;20186;-73
2021/05/24 12:52:09;;;;;;;4.13;1.05;;;37.20;43.50;;;;;;5044409;28;20321;-73
2021/05/24 12:54:44;;;;;;;4.60;1.38;;;36.90;44.00;;;;;;5048820;28;20175;-72